createdAt,value
2022-09-22T00:00:59.505Z,7.36
2022-09-22T00:03:31.309Z,7.22
2022-09-22T00:06:01.456Z,7.12
2022-09-22T00:08:30.875Z,7.28
2022-09-22T00:11:04.726Z,7.29
2022-09-22T00:13:33.624Z,7.31
2022-09-22T00:16:02.035Z,7.31
2022-09-22T00:18:31.457Z,7.22
2022-09-22T00:20:59.273Z,7.13
2022-09-22T00:23:29.081Z,7.21
2022-09-22T00:25:56.856Z,7.40
2022-09-22T00:28:26.383Z,7.63
2022-09-22T00:30:54.145Z,7.56
2022-09-22T00:33:21.895Z,7.46
2022-09-22T00:35:59.633Z,7.40
2022-09-22T00:38:27.802Z,7.39
2022-09-22T00:40:55.685Z,7.17
2022-09-22T00:43:27.111Z,7.10
2022-09-22T00:45:59.471Z,6.99
2022-09-22T00:48:29.329Z,6.97
2022-09-22T00:51:01.086Z,6.99
2022-09-22T00:53:31.802Z,6.96
2022-09-22T00:56:04.191Z,6.98
2022-09-22T00:58:36.582Z,7.07
2022-09-22T01:01:05.350Z,7.07
2022-09-22T01:03:33.231Z,6.98
2022-09-22T01:06:06.319Z,6.89
2022-09-22T01:08:35.745Z,6.88
2022-09-22T01:11:03.615Z,6.92
2022-09-22T01:13:36.552Z,6.86
2022-09-22T01:16:21.821Z,6.77
2022-09-22T01:19:07.595Z,6.64
2022-09-22T01:21:46.167Z,6.73
2022-09-22T01:24:46.567Z,6.68
2022-09-22T01:27:31.994Z,6.65
2022-09-22T01:30:15.044Z,6.57
2022-09-22T01:32:52.358Z,6.55
2022-09-22T01:35:29.196Z,6.65
2022-09-22T01:38:03.879Z,6.68
2022-09-22T01:40:36.529Z,6.64
2022-09-22T01:43:12.046Z,6.66
2022-09-22T01:45:44.491Z,6.73
2022-09-22T01:48:18.849Z,6.62
2022-09-22T01:50:51.929Z,6.56
2022-09-22T01:53:23.705Z,6.56
2022-09-22T01:55:55.146Z,6.47
2022-09-22T01:58:27.606Z,6.52
2022-09-22T02:01:01.817Z,6.41
2022-09-22T02:03:36.580Z,6.40
2022-09-22T02:06:10.424Z,6.38
2022-09-22T02:08:44.037Z,6.37
2022-09-22T02:11:16.159Z,6.42
2022-09-22T02:13:45.243Z,6.38
2022-09-22T02:16:17.027Z,6.52
2022-09-22T02:18:49.431Z,6.30
2022-09-22T02:21:18.711Z,6.36
2022-09-22T02:23:48.832Z,6.55
2022-09-22T02:26:23.577Z,6.48
2022-09-22T02:28:54.496Z,6.51
2022-09-22T02:31:28.563Z,6.43
2022-09-22T02:33:56.740Z,6.47
2022-09-22T02:36:49.808Z,6.46
2022-09-22T02:39:23.187Z,6.42
2022-09-22T02:42:07.698Z,6.38
2022-09-22T02:44:44.838Z,6.26
2022-09-22T02:47:18.704Z,6.34
2022-09-22T02:49:48.088Z,6.31
2022-09-22T02:52:16.151Z,6.23
2022-09-22T02:54:43.908Z,6.35
2022-09-22T02:57:11.851Z,6.33
2022-09-22T02:59:39.627Z,6.35
2022-09-22T03:02:07.313Z,6.33
2022-09-22T03:04:36.455Z,6.22
2022-09-22T03:07:04.350Z,6.25
2022-09-22T03:09:32.050Z,6.20
2022-09-22T03:11:59.795Z,6.19
2022-09-22T03:14:27.619Z,6.15
2022-09-22T03:16:55.502Z,6.10
2022-09-22T03:19:23.247Z,6.13
2022-09-22T03:21:52.333Z,6.10
2022-09-22T03:24:20.061Z,6.05
2022-09-22T03:26:47.772Z,6.10
2022-09-22T03:29:15.577Z,6.12
2022-09-22T03:31:43.351Z,6.00
2022-09-22T03:34:11.063Z,5.95
2022-09-22T03:36:38.838Z,5.97
2022-09-22T03:39:07.923Z,5.95
2022-09-22T03:41:35.809Z,6.02
2022-09-22T03:44:06.074Z,6.08
2022-09-22T03:46:34.392Z,6.14
2022-09-22T03:49:03.094Z,6.14
2022-09-22T03:51:31.048Z,6.15
2022-09-22T03:53:58.791Z,6.12
2022-09-22T03:56:27.923Z,6.01
2022-09-22T03:58:55.978Z,6.00
2022-09-22T04:01:23.864Z,6.00
2022-09-22T04:03:51.745Z,5.92
2022-09-22T04:06:19.533Z,5.83
2022-09-22T04:08:47.249Z,5.70
2022-09-22T04:11:14.981Z,5.66
2022-09-22T04:13:46.473Z,5.71
2022-09-22T04:16:14.650Z,5.59
2022-09-22T04:18:42.450Z,5.60
2022-09-22T04:21:10.544Z,5.65
2022-09-22T04:23:38.395Z,5.62
2022-09-22T04:26:06.590Z,5.63
2022-09-22T04:28:34.482Z,5.72
2022-09-22T04:31:03.846Z,5.72
2022-09-22T04:33:31.728Z,5.56
2022-09-22T04:35:59.630Z,5.53
2022-09-22T04:38:27.407Z,5.71
2022-09-22T04:40:55.192Z,5.72
2022-09-22T04:43:23.013Z,5.56
2022-09-22T04:45:50.911Z,5.56
2022-09-22T04:48:20.176Z,5.64
2022-09-22T04:50:48.434Z,5.61
2022-09-22T04:53:16.907Z,5.63
2022-09-22T04:55:45.118Z,5.42
2022-09-22T04:58:13.890Z,5.58
2022-09-22T05:00:41.665Z,5.64
2022-09-22T05:03:10.436Z,5.50
2022-09-22T05:05:40.001Z,5.45
2022-09-22T05:08:07.851Z,5.37
2022-09-22T05:10:36.725Z,5.55
2022-09-22T05:13:05.763Z,5.63
2022-09-22T05:15:34.640Z,5.69
2022-09-22T05:18:02.609Z,5.60
2022-09-22T05:20:30.372Z,5.64
2022-09-22T05:22:59.968Z,5.54
2022-09-22T05:25:27.967Z,5.53
2022-09-22T05:27:56.928Z,5.60
2022-09-22T05:30:26.981Z,5.75
2022-09-22T05:32:54.910Z,5.72
2022-09-22T05:35:24.779Z,5.81
2022-09-22T05:37:54.017Z,5.93
2022-09-22T05:40:26.160Z,5.94
2022-09-22T05:42:54.789Z,6.07
2022-09-22T05:45:23.061Z,6.10
2022-09-22T05:47:50.936Z,6.15
2022-09-22T05:50:20.750Z,6.13
2022-09-22T05:52:48.551Z,6.32
2022-09-22T05:55:16.680Z,6.41
2022-09-22T05:57:45.898Z,6.47
2022-09-22T06:00:14.382Z,6.51
2022-09-22T06:02:45.012Z,6.60
2022-09-22T06:05:15.473Z,6.63
2022-09-22T06:07:45.160Z,6.74
2022-09-22T06:10:13.250Z,6.97
2022-09-22T06:12:41.296Z,7.18
2022-09-22T06:15:11.249Z,7.13
2022-09-22T06:17:38.925Z,7.15
2022-09-22T06:20:08.466Z,7.18
2022-09-22T06:22:36.416Z,7.26
2022-09-22T06:25:04.618Z,7.35
2022-09-22T06:27:32.364Z,7.40
2022-09-22T06:30:00.334Z,7.52
2022-09-22T06:32:29.702Z,7.55
2022-09-22T06:35:02.508Z,8.17
2022-09-22T06:37:30.379Z,8.43
2022-09-22T06:39:58.207Z,8.68
2022-09-22T06:42:26.032Z,8.51
2022-09-22T06:44:54.749Z,8.26
2022-09-22T06:47:22.524Z,8.26
2022-09-22T06:49:51.681Z,8.23
2022-09-22T06:52:19.497Z,8.26
2022-09-22T06:54:50.247Z,8.29
2022-09-22T06:57:19.809Z,8.36
2022-09-22T06:59:48.320Z,8.42
2022-09-22T07:02:16.273Z,8.53
2022-09-22T07:04:44.148Z,8.72
2022-09-22T07:07:13.351Z,8.79
2022-09-22T07:09:41.096Z,8.77
2022-09-22T07:12:09.027Z,8.95
2022-09-22T07:14:36.772Z,8.97
2022-09-22T07:17:04.638Z,9.11
2022-09-22T07:19:36.182Z,9.23
2022-09-22T07:22:04.221Z,9.29
2022-09-22T07:24:33.518Z,9.36
2022-09-22T07:27:04.901Z,9.89
2022-09-22T07:29:33.240Z,9.97
2022-09-22T07:32:02.403Z,10.05
2022-09-22T07:34:30.438Z,10.21
2022-09-22T07:36:59.295Z,10.21
2022-09-22T07:39:27.163Z,10.05
2022-09-22T07:41:56.455Z,10.20
2022-09-22T07:44:44.504Z,10.42
2022-09-22T07:47:12.852Z,10.28
2022-09-22T07:49:40.618Z,10.37
2022-09-22T07:52:09.878Z,10.49
2022-09-22T07:54:39.694Z,10.34
2022-09-22T07:57:11.109Z,10.41
2022-09-22T07:59:39.707Z,10.80
2022-09-22T08:02:08.279Z,10.96
2022-09-22T08:04:36.240Z,10.83
2022-09-22T08:07:04.550Z,10.94
2022-09-22T08:09:33.478Z,10.94
2022-09-22T08:12:02.194Z,11.08
2022-09-22T08:14:31.421Z,11.43
2022-09-22T08:16:59.549Z,11.46
2022-09-22T08:19:27.265Z,11.22
2022-09-22T08:21:55.215Z,11.35
2022-09-22T08:24:31.730Z,11.60
2022-09-22T08:26:59.597Z,11.70
2022-09-22T08:29:27.885Z,11.59
2022-09-22T08:31:57.055Z,11.64
2022-09-22T08:34:25.897Z,11.78
2022-09-22T08:36:54.977Z,11.95
2022-09-22T08:39:22.825Z,12.06
2022-09-22T08:42:05.722Z,12.31
2022-09-22T08:44:39.589Z,12.43
2022-09-22T08:47:17.116Z,12.57
2022-09-22T08:50:09.279Z,12.73
2022-09-22T08:52:43.268Z,12.85
2022-09-22T08:55:19.035Z,12.94
2022-09-22T08:57:59.845Z,13.05
2022-09-22T09:00:33.745Z,12.97
2022-09-22T09:03:18.679Z,12.97
2022-09-22T09:06:04.081Z,13.09
2022-09-22T09:09:06.638Z,13.23
2022-09-22T09:11:51.874Z,13.41
2022-09-22T09:14:42.402Z,13.39
2022-09-22T09:17:15.720Z,13.59
2022-09-22T09:19:50.467Z,13.67
2022-09-22T09:22:25.064Z,13.88
2022-09-22T09:27:50.385Z,13.89
2022-09-22T09:30:20.270Z,13.85
2022-09-22T09:32:51.649Z,13.98
2022-09-22T09:35:26.719Z,14.20
2022-09-22T09:37:58.778Z,14.19
2022-09-22T09:40:27.614Z,14.18
2022-09-22T09:42:58.965Z,14.23
2022-09-22T09:45:32.927Z,14.16
2022-09-22T09:48:19.935Z,14.38
2022-09-22T09:50:49.081Z,14.32
2022-09-22T09:53:31.810Z,14.51
2022-09-22T09:55:59.775Z,14.59
2022-09-22T09:58:45.023Z,14.65
2022-09-22T10:01:15.256Z,14.82
2022-09-22T10:03:46.920Z,14.87
2022-09-22T10:06:25.166Z,15.00
2022-09-22T10:08:53.213Z,14.94
2022-09-22T10:11:31.091Z,15.23
2022-09-22T10:13:59.772Z,15.28
2022-09-22T10:16:28.800Z,15.37
2022-09-22T10:19:22.614Z,15.49
2022-09-22T10:21:51.947Z,15.43
2022-09-22T10:24:32.515Z,15.49
2022-09-22T10:27:02.613Z,15.67
2022-09-22T10:29:33.255Z,15.83
2022-09-22T10:32:03.892Z,15.80
2022-09-22T10:34:34.977Z,15.82
2022-09-22T10:37:08.894Z,15.81
2022-09-22T10:39:47.198Z,15.96
2022-09-22T10:42:33.333Z,15.90
2022-09-22T10:45:04.290Z,16.06
2022-09-22T10:47:39.562Z,15.92
2022-09-22T10:50:36.613Z,16.14
2022-09-22T10:53:25.546Z,16.17
2022-09-22T10:55:59.276Z,16.25
2022-09-22T10:58:46.855Z,16.21
2022-09-22T11:01:33.183Z,16.20
2022-09-22T11:04:17.685Z,16.30
2022-09-22T11:07:18.307Z,16.43
2022-09-22T11:10:14.008Z,16.77
2022-09-22T11:12:55.789Z,16.85
2022-09-22T11:15:45.111Z,16.83
2022-09-22T11:18:34.485Z,16.99
2022-09-22T11:25:08.922Z,17.04
2022-09-22T11:27:53.164Z,17.07
2022-09-22T11:30:22.935Z,17.25
2022-09-22T11:33:18.764Z,17.13
2022-09-22T11:36:17.969Z,17.18
2022-09-22T11:39:04.708Z,16.94
2022-09-22T11:41:41.715Z,16.91
2022-09-22T11:44:42.082Z,17.09
2022-09-22T11:47:25.972Z,17.30
2022-09-22T11:50:17.926Z,17.52
2022-09-22T11:53:01.470Z,17.50
2022-09-22T11:55:37.421Z,17.69
2022-09-22T11:58:15.410Z,17.86
2022-09-22T12:00:49.588Z,17.85
2022-09-22T12:03:23.788Z,17.71
2022-09-22T12:05:55.808Z,17.63
2022-09-22T12:08:26.920Z,17.35
2022-09-22T12:10:55.226Z,17.67
2022-09-22T12:13:25.481Z,17.60
2022-09-22T12:18:41.624Z,17.72
2022-09-22T12:21:23.810Z,17.83
2022-09-22T12:24:03.754Z,18.15
2022-09-22T12:26:38.254Z,18.24
2022-09-22T12:29:24.531Z,18.22
2022-09-22T12:34:50.412Z,18.38
2022-09-22T12:41:27.414Z,19.06
2022-09-22T12:44:11.761Z,19.23
2022-09-22T12:46:44.890Z,19.20
2022-09-22T12:49:25.970Z,19.52
2022-09-22T12:55:21.949Z,19.77
2022-09-22T12:57:53.947Z,20.10
2022-09-22T13:00:32.831Z,19.49
2022-09-22T13:03:02.052Z,18.93
2022-09-22T13:05:46.758Z,19.10
2022-09-22T13:08:24.102Z,19.54
2022-09-22T13:11:00.677Z,19.61
2022-09-22T13:13:37.586Z,19.32
2022-09-22T13:16:21.795Z,18.97
2022-09-22T13:18:59.741Z,18.74
2022-09-22T13:21:28.929Z,18.59
2022-09-22T13:24:00.207Z,18.49
2022-09-22T13:26:30.485Z,18.31
2022-09-22T13:29:04.821Z,18.23
2022-09-22T13:31:41.546Z,18.07
2022-09-22T13:34:26.913Z,18.44
2022-09-22T13:36:58.964Z,18.44
2022-09-22T13:39:31.769Z,18.41
2022-09-22T13:42:05.482Z,18.14
2022-09-22T13:44:35.424Z,18.28
2022-09-22T13:47:07.845Z,18.25
2022-09-22T13:49:41.384Z,18.66
2022-09-22T13:52:13.718Z,18.63
2022-09-22T13:54:43.573Z,18.92
2022-09-22T13:57:21.446Z,19.33
2022-09-22T13:59:49.547Z,19.48
2022-09-22T14:02:24.454Z,19.27
2022-09-22T14:04:58.159Z,19.40
2022-09-22T14:07:30.166Z,19.57
2022-09-22T14:10:02.089Z,19.72
2022-09-22T14:12:30.560Z,19.69
2022-09-22T14:15:49.724Z,19.88
2022-09-22T14:18:26.332Z,19.42
2022-09-22T14:20:55.744Z,19.99
2022-09-22T14:23:28.816Z,23.82
2022-09-22T14:25:59.651Z,26.59
2022-09-22T14:28:32.374Z,28.80
2022-09-22T14:31:00.275Z,28.47
2022-09-22T14:33:32.275Z,27.23
2022-09-22T14:36:01.800Z,25.73
2022-09-22T14:38:34.383Z,23.91
2022-09-22T14:41:04.400Z,22.67
2022-09-22T14:43:37.803Z,21.38
2022-09-22T14:46:23.847Z,20.82
2022-09-22T14:48:52.186Z,20.40
2022-09-22T14:51:25.032Z,20.70
2022-09-22T14:53:57.590Z,23.12
2022-09-22T14:56:29.362Z,24.74
2022-09-22T14:59:00.160Z,28.30
2022-09-22T15:01:48.865Z,30.50
2022-09-22T15:04:23.051Z,31.06
2022-09-22T15:06:52.441Z,29.67
2022-09-22T15:09:26.034Z,32.00
2022-09-22T15:11:57.999Z,32.26
2022-09-22T15:14:33.485Z,32.46
2022-09-22T15:17:16.422Z,32.08
2022-09-22T15:19:44.272Z,32.08
2022-09-22T15:22:14.418Z,30.81
2022-09-22T15:24:42.615Z,29.51
2022-09-22T15:27:17.686Z,28.15
2022-09-22T15:29:45.779Z,29.09
2022-09-22T15:32:14.126Z,28.28
2022-09-22T15:34:44.645Z,28.41
2022-09-22T15:37:17.216Z,25.71
2022-09-22T15:39:45.069Z,22.79
2022-09-22T15:42:14.835Z,21.35
2022-09-22T15:44:43.761Z,20.12
2022-09-22T15:47:16.573Z,19.65
2022-09-22T15:49:45.037Z,19.13
2022-09-22T15:52:13.063Z,19.02
2022-09-22T15:54:40.822Z,19.02
2022-09-22T15:57:08.636Z,18.79
2022-09-22T15:59:39.700Z,18.58
2022-09-22T16:02:11.575Z,18.41
2022-09-22T16:04:39.408Z,18.23
2022-09-22T16:07:12.323Z,18.15
2022-09-22T16:09:40.283Z,17.90
2022-09-22T16:12:10.796Z,17.91
2022-09-22T16:14:42.416Z,17.82
2022-09-22T16:17:10.476Z,17.77
2022-09-22T16:19:38.255Z,17.73
2022-09-22T16:22:06.653Z,17.61
2022-09-22T16:24:34.716Z,17.47
2022-09-22T16:27:04.091Z,17.48
2022-09-22T16:29:32.575Z,17.33
2022-09-22T16:32:02.151Z,17.26
2022-09-22T16:34:34.918Z,17.15
2022-09-22T16:37:03.397Z,17.15
2022-09-22T16:39:31.199Z,17.10
2022-09-22T16:41:59.174Z,17.02
2022-09-22T16:44:27.266Z,16.86
2022-09-22T16:46:55.198Z,16.69
2022-09-22T16:49:25.583Z,16.65
2022-09-22T16:51:54.308Z,16.46
2022-09-22T16:54:24.668Z,16.37
2022-09-22T16:56:53.885Z,16.31
2022-09-22T16:59:23.311Z,16.20
2022-09-22T17:01:51.669Z,16.15
2022-09-22T17:04:20.280Z,16.03
2022-09-22T17:06:50.081Z,15.86
2022-09-22T17:09:19.008Z,15.78
2022-09-22T17:11:48.742Z,15.70
2022-09-22T17:14:21.531Z,15.55
2022-09-22T17:16:51.786Z,15.40
2022-09-22T17:19:21.603Z,15.25
2022-09-22T17:21:53.899Z,15.13
2022-09-22T17:24:22.651Z,15.04
2022-09-22T17:26:52.892Z,14.89
2022-09-22T17:29:23.344Z,14.76
2022-09-22T17:31:52.121Z,14.68
2022-09-22T17:34:19.996Z,14.44
2022-09-22T17:36:47.891Z,14.40
2022-09-22T17:39:19.073Z,14.36
2022-09-22T17:41:47.881Z,14.29
2022-09-22T17:44:21.326Z,14.26
2022-09-22T17:47:08.033Z,14.20
2022-09-22T17:49:53.830Z,14.11
2022-09-22T17:52:39.476Z,14.08
2022-09-22T17:55:14.263Z,13.94
2022-09-22T17:57:43.588Z,13.80
2022-09-22T18:00:13.957Z,13.49
2022-09-22T18:02:42.002Z,13.24
2022-09-22T18:05:11.997Z,13.17
2022-09-22T18:07:40.676Z,13.04
2022-09-22T18:10:12.096Z,12.94
2022-09-22T18:12:41.185Z,12.81
2022-09-22T18:15:13.102Z,12.66
2022-09-22T18:17:43.209Z,12.71
2022-09-22T18:20:12.680Z,12.73
2022-09-22T18:22:41.692Z,12.65
2022-09-22T18:25:11.601Z,12.56
2022-09-22T18:27:40.054Z,12.38
2022-09-22T18:30:10.645Z,12.20
2022-09-22T18:32:40.139Z,12.18
2022-09-22T18:35:09.112Z,12.26
2022-09-22T18:37:36.943Z,12.19
2022-09-22T18:40:05.169Z,11.95
2022-09-22T18:42:36.486Z,11.84
2022-09-22T18:45:04.946Z,11.75
2022-09-22T18:47:39.638Z,11.63
2022-09-22T18:50:08.590Z,11.47
2022-09-22T18:52:37.264Z,11.51
2022-09-22T18:55:09.298Z,11.46
2022-09-22T18:57:38.546Z,11.61
2022-09-22T19:00:07.349Z,11.61
2022-09-22T19:02:35.370Z,11.57
2022-09-22T19:05:03.315Z,11.42
2022-09-22T19:07:44.055Z,11.20
2022-09-22T19:10:14.148Z,11.10
2022-09-22T19:12:43.783Z,11.00
2022-09-22T19:15:16.996Z,10.81
2022-09-22T19:17:47.548Z,10.89
2022-09-22T19:20:18.227Z,10.79
2022-09-22T19:22:46.947Z,10.75
2022-09-22T19:25:16.035Z,10.68
2022-09-22T19:27:45.359Z,10.59
2022-09-22T19:30:14.035Z,10.55
2022-09-22T19:32:42.401Z,10.49
2022-09-22T19:35:11.169Z,10.53
2022-09-22T19:37:40.706Z,10.57
2022-09-22T19:40:13.157Z,10.44
2022-09-22T19:42:41.053Z,10.39
2022-09-22T19:45:11.146Z,10.40
2022-09-22T19:47:40.563Z,10.35
2022-09-22T19:50:09.517Z,10.27
2022-09-22T19:52:38.174Z,10.21
2022-09-22T19:55:07.076Z,10.32
2022-09-22T19:57:36.225Z,10.29
2022-09-22T20:00:04.571Z,10.26
2022-09-22T20:02:34.384Z,10.36
2022-09-22T20:05:02.307Z,10.14
2022-09-22T20:07:30.214Z,10.07
2022-09-22T20:09:58.086Z,10.24
2022-09-22T20:12:25.908Z,10.10
2022-09-22T20:14:54.543Z,10.04
2022-09-22T20:17:23.097Z,9.96
2022-09-22T20:19:52.211Z,9.93
2022-09-22T20:22:23.101Z,9.79
2022-09-22T20:24:55.385Z,9.78
2022-09-22T20:27:27.845Z,9.66
2022-09-22T20:29:57.484Z,9.65
2022-09-22T20:32:26.223Z,9.53
2022-09-22T20:34:56.336Z,9.54
2022-09-22T20:37:25.151Z,9.53
2022-09-22T20:39:53.445Z,9.45
2022-09-22T20:42:21.524Z,9.49
2022-09-22T20:44:49.574Z,9.46
2022-09-22T20:47:19.254Z,9.47
2022-09-22T20:49:51.601Z,9.41
2022-09-22T20:52:21.518Z,9.34
2022-09-22T20:54:50.076Z,9.33
2022-09-22T20:57:18.164Z,9.25
2022-09-22T20:59:46.290Z,9.14
2022-09-22T21:02:15.216Z,9.25
2022-09-22T21:04:43.236Z,9.17
2022-09-22T21:07:11.519Z,9.18
2022-09-22T21:09:58.737Z,9.23
2022-09-22T21:12:31.131Z,9.11
2022-09-22T21:14:59.605Z,9.10
2022-09-22T21:17:29.702Z,8.92
2022-09-22T21:19:57.819Z,9.03
2022-09-22T21:22:27.935Z,8.98
2022-09-22T21:24:57.188Z,8.97
2022-09-22T21:27:25.525Z,8.99
2022-09-22T21:29:53.648Z,8.93
2022-09-22T21:32:21.724Z,8.91
2022-09-22T21:34:49.616Z,8.88
2022-09-22T21:37:17.526Z,8.77
2022-09-22T21:39:45.433Z,8.75
2022-09-22T21:42:14.659Z,8.75
2022-09-22T21:44:42.713Z,8.73
2022-09-22T21:47:11.550Z,8.62
2022-09-22T21:49:39.526Z,8.60
2022-09-22T21:52:07.566Z,8.61
2022-09-22T21:54:35.807Z,8.61
2022-09-22T21:57:04.137Z,8.55
2022-09-22T21:59:33.372Z,8.45
2022-09-22T22:02:01.704Z,8.44
2022-09-22T22:04:29.537Z,8.57
2022-09-22T22:06:57.450Z,8.50
2022-09-22T22:09:25.714Z,8.52
2022-09-22T22:11:56.261Z,8.52
2022-09-22T22:14:26.054Z,8.60
2022-09-22T22:16:56.237Z,8.54
2022-09-22T22:19:26.883Z,8.48
2022-09-22T22:21:55.490Z,8.36
2022-09-22T22:24:39.446Z,8.34
2022-09-22T22:27:09.682Z,8.36
2022-09-22T22:29:38.887Z,8.39
2022-09-22T22:32:10.421Z,8.24
2022-09-22T22:34:39.012Z,8.32
2022-09-22T22:37:09.786Z,8.34
2022-09-22T22:39:37.740Z,8.30
2022-09-22T22:42:06.597Z,8.36
2022-09-22T22:44:35.245Z,8.31
2022-09-22T22:47:03.203Z,8.24
2022-09-22T22:49:32.494Z,8.18
2022-09-22T22:52:00.375Z,8.11
2022-09-22T22:54:28.384Z,8.18
2022-09-22T22:56:56.736Z,8.16
2022-09-22T22:59:24.494Z,8.06
2022-09-22T23:01:52.423Z,8.09
2022-09-22T23:04:22.548Z,8.00
2022-09-22T23:06:51.812Z,7.99
2022-09-22T23:09:19.595Z,7.93
2022-09-22T23:11:47.576Z,7.90
2022-09-22T23:14:16.198Z,7.88
2022-09-22T23:16:46.352Z,7.90
2022-09-22T23:19:16.147Z,7.83
2022-09-22T23:21:44.872Z,7.87
2022-09-22T23:24:16.742Z,7.77
2022-09-22T23:26:45.513Z,7.74
2022-09-22T23:29:13.839Z,7.77
2022-09-22T23:31:41.689Z,7.65
2022-09-22T23:34:09.583Z,7.66
2022-09-22T23:36:37.454Z,7.67
2022-09-22T23:39:05.979Z,7.64
2022-09-22T23:41:37.407Z,7.55
2022-09-22T23:44:06.453Z,7.61
2022-09-22T23:46:34.264Z,7.58
2022-09-22T23:49:02.277Z,7.49
2022-09-22T23:51:30.252Z,7.50
2022-09-22T23:53:58.820Z,7.42
2022-09-22T23:56:27.312Z,7.40
2022-09-22T23:58:56.551Z,7.38
